Time;durP1;ratioP1;P1;durP2;ratioP2;P2;SDS_P1;SDS_P2;PMS_P1;PMS_P2;Temp;Humidity;BMP_temperature;BMP_pressure;BME280_temperature;BME280_humidity;BME280_pressure;Samples;Min_cycle;Max_cycle;Signal;HPM_P1;HPM_P2
2021/06/07 00:02:15;;;;;;;6.13;4.45;;;;;;;;;;5050642;28;20485;-67
2021/06/07 00:04:41;;;;;;;7.65;5.43;;;;;;;;;;5047315;28;20874;-68
2021/06/07 00:07:07;;;;;;;6.18;4.80;;;;;;;;;;5072901;28;20040;-68
2021/06/07 00:09:33;;;;;;;7.15;5.10;;;;;;;;;;5075387;28;20788;-68
2021/06/07 00:12:00;;;;;;;7.53;5.40;;;;;;;;;;5072105;28;20028;-68
2021/06/07 00:14:28;;;;;;;7.40;4.78;;;;;;;;;;5037059;28;20044;-67
2021/06/07 00:16:53;;;;;;;6.05;4.60;;;;;;;;;;5073820;28;20040;-68
2021/06/07 00:19:19;;;;;;;6.13;4.32;;;;;;;;;;5073543;28;20043;-67
2021/06/07 00:21:45;;;;;;;7.50;4.78;;;;;;;;;;5056460;28;20037;-68
2021/06/07 00:24:11;;;;;;;6.82;5.13;;;;;;;;;;5058638;28;20087;-68
2021/06/07 00:26:36;;;;;;;6.53;4.63;;;;;;;;;;5041556;28;20034;-68
2021/06/07 00:29:02;;;;;;;7.05;4.57;;;;;;;;;;5055141;28;20621;-68
2021/06/07 00:31:27;;;;;;;6.82;4.78;;;;;;;;;;5074640;28;20546;-68
2021/06/07 00:33:53;;;;;;;7.35;5.38;;;;;;;;;;5056700;28;20043;-67
2021/06/07 00:36:22;;;;;;;6.70;5.05;;;;;;;;;;5043376;28;20499;-68
2021/06/07 00:38:51;;;;;;;6.78;4.88;;;;;;;;;;5039898;28;20044;-67
2021/06/07 00:41:16;;;;;;;6.80;4.65;;;;;;;;;;5073681;28;20029;-68
2021/06/07 00:43:42;;;;;;;6.28;4.80;;;;;;;;;;5073128;28;20041;-68
2021/06/07 00:46:08;;;;;;;7.47;5.15;;;;;;;;;;5056454;28;20102;-68
2021/06/07 00:48:33;;;;;;;7.47;5.03;;;;;;;;;;5072923;28;20040;-67
2021/06/07 00:51:00;;;;;;;7.15;5.32;;;;;;;;;;5074368;28;20068;-68
2021/06/07 00:53:26;;;;;;;6.93;5.28;;;;;;;;;;5057687;28;20025;-68
2021/06/07 00:55:56;;;;;;;6.95;4.95;;;;;;;;;;5072925;28;20044;-68
2021/06/07 00:58:27;;;;;;;8.18;5.40;;;;;;;;;;5055173;28;20036;-68
2021/06/07 01:00:53;;;;;;;7.60;5.43;;;;;;;;;;5053515;28;20045;-67
2021/06/07 01:03:20;;;;;;;7.72;5.60;;;;;;;;;;5071849;28;20041;-68
2021/06/07 01:05:46;;;;;;;9.10;6.47;;;;;;;;;;5064342;28;20039;-68
2021/06/07 01:08:11;;;;;;;8.05;5.97;;;;;;;;;;5057271;28;20120;-68
2021/06/07 01:10:37;;;;;;;8.23;6.30;;;;;;;;;;5073265;28;20117;-68
2021/06/07 01:13:02;;;;;;;9.48;6.53;;;;;;;;;;5073302;28;20048;-68
2021/06/07 01:15:28;;;;;;;8.75;6.60;;;;;;;;;;5072821;28;20037;-68
2021/06/07 01:17:53;;;;;;;9.23;6.95;;;;;;;;;;5072694;28;20032;-68
2021/06/07 01:20:20;;;;;;;8.70;6.57;;;;;;;;;;5071885;28;20115;-68
2021/06/07 01:22:45;;;;;;;9.05;6.82;;;;;;;;;;5073105;28;20088;-68
2021/06/07 01:25:14;;;;;;;9.80;7.10;;;;;;;;;;5072643;28;20436;-68
2021/06/07 01:27:39;;;;;;;9.38;6.63;;;;;;;;;;5071608;28;20126;-68
2021/06/07 01:30:08;;;;;;;10.07;6.88;;;;;;;;;;5071782;28;20786;-67
2021/06/07 01:32:33;;;;;;;9.63;6.85;;;;;;;;;;5055124;28;20190;-67
2021/06/07 01:34:59;;;;;;;8.68;6.50;;;;;;;;;;5042604;28;20036;-68
2021/06/07 01:37:24;;;;;;;8.73;6.60;;;;;;;;;;5071627;28;20033;-68
2021/06/07 01:39:50;;;;;;;9.45;7.00;;;;;;;;;;5062884;28;20102;-68
2021/06/07 01:42:15;;;;;;;9.07;6.60;;;;;;;;;;5053542;28;20039;-67
2021/06/07 01:44:41;;;;;;;9.52;6.90;;;;;;;;;;5073522;28;24431;-68
2021/06/07 01:47:06;;;;;;;10.20;6.88;;;;;;;;;;5071722;28;20919;-68
2021/06/07 01:49:32;;;;;;;8.63;6.35;;;;;;;;;;5071882;28;20440;-67
2021/06/07 01:51:57;;;;;;;8.02;6.00;;;;;;;;;;5072443;28;20957;-68
2021/06/07 01:54:23;;;;;;;8.52;6.30;;;;;;;;;;5036048;28;20109;-68
2021/06/07 01:56:48;;;;;;;9.48;6.65;;;;;;;;;;5073039;28;20440;-68
2021/06/07 01:59:14;;;;;;;11.00;6.90;;;;;;;;;;5038268;28;20351;-68
2021/06/07 02:01:40;;;;;;;9.00;6.55;;;;;;;;;;5073219;28;20028;-68
2021/06/07 02:04:05;;;;;;;9.02;6.85;;;;;;;;;;5048118;28;20344;-68
2021/06/07 02:06:31;;;;;;;9.45;7.10;;;;;;;;;;5072596;28;20382;-68
2021/06/07 02:08:56;;;;;;;8.90;6.93;;;;;;;;;;5072144;28;20036;-67
2021/06/07 02:11:26;;;;;;;9.13;6.85;;;;;;;;;;5039254;28;20113;-68
2021/06/07 02:13:53;;;;;;;9.18;6.63;;;;;;;;;;5071703;28;20047;-68
2021/06/07 02:16:23;;;;;;;9.57;7.07;;;;;;;;;;5072601;28;20611;-68
2021/06/07 02:18:48;;;;;;;9.18;7.03;;;;;;;;;;5064286;28;20158;-68
2021/06/07 02:21:15;;;;;;;9.00;6.65;;;;;;;;;;5045112;28;20045;-68
2021/06/07 02:23:41;;;;;;;9.50;7.10;;;;;;;;;;5053389;28;20128;-68
2021/06/07 02:26:07;;;;;;;9.07;6.97;;;;;;;;;;5053436;28;20051;-68
2021/06/07 02:28:32;;;;;;;9.48;7.07;;;;;;;;;;5072716;28;20066;-68
2021/06/07 02:30:58;;;;;;;9.30;6.97;;;;;;;;;;5052514;28;20079;-68
2021/06/07 02:33:24;;;;;;;9.55;6.82;;;;;;;;;;5052965;28;20046;-68
2021/06/07 02:35:49;;;;;;;8.93;6.47;;;;;;;;;;5072602;28;20055;-68
2021/06/07 02:38:15;;;;;;;9.60;6.97;;;;;;;;;;5072607;28;20047;-68
2021/06/07 02:40:40;;;;;;;9.38;7.22;;;;;;;;;;5071199;28;20174;-68
2021/06/07 02:43:06;;;;;;;9.10;6.95;;;;;;;;;;5069753;28;20073;-68
2021/06/07 02:45:31;;;;;;;9.52;7.28;;;;;;;;;;5052538;28;20036;-68
2021/06/07 02:47:58;;;;;;;8.63;6.72;;;;;;;;;;5045443;28;20118;-68
2021/06/07 02:50:26;;;;;;;9.10;6.68;;;;;;;;;;5053451;28;20497;-68
2021/06/07 02:52:52;;;;;;;8.77;6.75;;;;;;;;;;5070056;28;20037;-67
2021/06/07 02:55:18;;;;;;;9.93;7.18;;;;;;;;;;5068728;28;20386;-68
2021/06/07 02:57:44;;;;;;;8.85;6.60;;;;;;;;;;5069614;28;20517;-68
2021/06/07 03:00:10;;;;;;;9.73;7.00;;;;;;;;;;5051288;28;20048;-67
2021/06/07 03:02:36;;;;;;;9.75;6.95;;;;;;;;;;5053634;28;20041;-68
2021/06/07 03:05:01;;;;;;;8.52;6.68;;;;;;;;;;5070882;28;20470;-68
2021/06/07 03:07:27;;;;;;;9.57;7.38;;;;;;;;;;5071131;28;20047;-68
2021/06/07 03:09:52;;;;;;;9.40;7.10;;;;;;;;;;5071847;28;20042;-68
2021/06/07 03:12:17;;;;;;;9.93;7.22;;;;;;;;;;5054688;28;20037;-68
2021/06/07 03:14:43;;;;;;;9.73;7.25;;;;;;;;;;5070679;28;20396;-68
2021/06/07 03:17:09;;;;;;;10.43;7.38;;;;;;;;;;5070498;28;20523;-67
2021/06/07 03:19:35;;;;;;;8.93;6.88;;;;;;;;;;5052640;28;20565;-68
2021/06/07 03:22:00;;;;;;;10.93;7.47;;;;;;;;;;5050314;28;20495;-68
2021/06/07 03:24:25;;;;;;;9.05;7.00;;;;;;;;;;5070323;28;20039;-68
2021/06/07 03:26:51;;;;;;;9.23;6.78;;;;;;;;;;5070551;28;20047;-67
2021/06/07 03:29:16;;;;;;;9.75;7.00;;;;;;;;;;5071488;28;20089;-67
2021/06/07 03:31:42;;;;;;;8.98;6.90;;;;;;;;;;5071229;28;20960;-68
2021/06/07 03:34:07;;;;;;;8.63;6.53;;;;;;;;;;5069928;28;20102;-67
2021/06/07 03:36:33;;;;;;;9.70;6.90;;;;;;;;;;5050953;28;27381;-68
2021/06/07 03:38:59;;;;;;;9.02;6.55;;;;;;;;;;5073440;28;20418;-67
2021/06/07 03:41:24;;;;;;;9.45;7.32;;;;;;;;;;5074611;28;20029;-67
2021/06/07 03:43:50;;;;;;;8.13;6.40;;;;;;;;;;5055854;28;20029;-67
2021/06/07 03:46:15;;;;;;;9.00;6.78;;;;;;;;;;5073444;28;20041;-67
2021/06/07 03:48:41;;;;;;;9.60;6.80;;;;;;;;;;5073632;28;20036;-67
2021/06/07 03:51:06;;;;;;;8.73;6.28;;;;;;;;;;5072554;28;20488;-68
2021/06/07 03:53:32;;;;;;;9.15;6.28;;;;;;;;;;5073282;28;20129;-68
2021/06/07 03:55:57;;;;;;;8.30;6.15;;;;;;;;;;5055923;28;20044;-67
2021/06/07 03:58:23;;;;;;;9.30;6.47;;;;;;;;;;5074808;28;20021;-68
2021/06/07 04:00:48;;;;;;;8.57;6.25;;;;;;;;;;5072955;28;20044;-68
2021/06/07 04:03:13;;;;;;;8.20;6.20;;;;;;;;;;5055027;28;20037;-68
2021/06/07 04:05:39;;;;;;;8.60;6.43;;;;;;;;;;5072283;28;20048;-68
2021/06/07 04:08:05;;;;;;;8.82;6.28;;;;;;;;;;5073549;28;20040;-68
2021/06/07 04:10:31;;;;;;;8.52;5.85;;;;;;;;;;5074002;28;20126;-68
2021/06/07 04:12:56;;;;;;;8.43;6.38;;;;;;;;;;5054881;28;20095;-67
2021/06/07 04:15:24;;;;;;;8.35;6.57;;;;;;;;;;5054401;28;20037;-67
2021/06/07 04:17:49;;;;;;;8.85;6.07;;;;;;;;;;5054671;28;20122;-68
2021/06/07 04:20:16;;;;;;;10.73;7.05;;;;;;;;;;5073372;28;20086;-68
2021/06/07 04:22:43;;;;;;;9.57;6.40;;;;;;;;;;5056162;28;20916;-67
2021/06/07 04:25:10;;;;;;;9.73;6.65;;;;;;;;;;5052421;28;20041;-67
2021/06/07 04:27:38;;;;;;;9.60;6.88;;;;;;;;;;5071672;28;20029;-67
2021/06/07 04:30:07;;;;;;;10.30;7.20;;;;;;;;;;5072355;28;20048;-67
2021/06/07 04:32:33;;;;;;;10.32;6.72;;;;;;;;;;5039884;28;20556;-67
2021/06/07 04:35:00;;;;;;;9.15;6.50;;;;;;;;;;5071353;28;20055;-67
2021/06/07 04:37:27;;;;;;;10.10;6.72;;;;;;;;;;5072541;28;20048;-67
2021/06/07 04:39:52;;;;;;;9.93;6.95;;;;;;;;;;5052037;28;20112;-67
2021/06/07 04:42:17;;;;;;;8.55;6.60;;;;;;;;;;5057512;28;21117;-67
2021/06/07 04:44:43;;;;;;;8.85;6.80;;;;;;;;;;5070980;28;20063;-67
2021/06/07 04:47:08;;;;;;;8.70;6.65;;;;;;;;;;5074088;28;20482;-67
2021/06/07 04:49:34;;;;;;;9.35;7.10;;;;;;;;;;5052023;28;20051;-67
2021/06/07 04:51:59;;;;;;;8.68;6.80;;;;;;;;;;5071491;28;20078;-67
2021/06/07 04:54:25;;;;;;;9.02;6.68;;;;;;;;;;5058447;28;20508;-67
2021/06/07 04:56:50;;;;;;;9.98;7.32;;;;;;;;;;5050504;28;29447;-67
2021/06/07 04:59:16;;;;;;;9.40;7.10;;;;;;;;;;5072765;28;20040;-67
2021/06/07 05:01:41;;;;;;;9.45;6.95;;;;;;;;;;5072907;28;20044;-68
2021/06/07 05:04:07;;;;;;;9.70;7.10;;;;;;;;;;5054379;28;20048;-67
2021/06/07 05:06:32;;;;;;;8.93;6.65;;;;;;;;;;5054257;28;20024;-67
2021/06/07 05:08:58;;;;;;;9.45;7.00;;;;;;;;;;5071787;28;20029;-67
2021/06/07 05:11:23;;;;;;;10.63;7.63;;;;;;;;;;5062083;28;20509;-67
2021/06/07 05:13:48;;;;;;;10.05;7.00;;;;;;;;;;5056500;28;20043;-67
2021/06/07 05:16:15;;;;;;;11.43;7.55;;;;;;;;;;5061557;28;20043;-67
2021/06/07 05:18:40;;;;;;;10.75;7.50;;;;;;;;;;5070867;28;20032;-67
2021/06/07 05:21:06;;;;;;;8.73;6.75;;;;;;;;;;5072265;28;20029;-67
2021/06/07 05:23:31;;;;;;;11.18;7.82;;;;;;;;;;5072328;28;20451;-67
2021/06/07 05:25:57;;;;;;;10.38;7.75;;;;;;;;;;5070352;28;20041;-67
2021/06/07 05:28:23;;;;;;;10.55;7.53;;;;;;;;;;5052627;28;20029;-68
2021/06/07 05:30:49;;;;;;;10.25;7.97;;;;;;;;;;5051900;28;20148;-67
2021/06/07 05:33:14;;;;;;;12.18;8.80;;;;;;;;;;5071374;28;20385;-67
2021/06/07 05:35:41;;;;;;;11.30;7.78;;;;;;;;;;5038540;28;20730;-67
2021/06/07 05:38:08;;;;;;;11.20;8.13;;;;;;;;;;5054595;28;20016;-68
2021/06/07 05:40:33;;;;;;;11.55;8.13;;;;;;;;;;5046614;28;20033;-67
2021/06/07 05:42:59;;;;;;;10.85;8.05;;;;;;;;;;5072532;28;20045;-67
2021/06/07 05:45:25;;;;;;;11.85;8.68;;;;;;;;;;5072024;28;20037;-68
2021/06/07 05:47:50;;;;;;;11.27;8.25;;;;;;;;;;5073930;28;20048;-67
2021/06/07 05:50:17;;;;;;;10.75;7.72;;;;;;;;;;5056478;28;20036;-67
2021/06/07 05:52:46;;;;;;;11.38;8.10;;;;;;;;;;5070097;28;20139;-67
2021/06/07 05:55:16;;;;;;;11.55;8.40;;;;;;;;;;5046866;28;20044;-67
2021/06/07 05:57:42;;;;;;;11.20;7.65;;;;;;;;;;5064688;28;20029;-67
2021/06/07 06:00:08;;;;;;;11.52;8.10;;;;;;;;;;5052804;28;20437;-67
2021/06/07 06:02:33;;;;;;;12.43;9.07;;;;;;;;;;5038222;28;20172;-67
2021/06/07 06:04:59;;;;;;;11.98;8.68;;;;;;;;;;5053707;28;20043;-67
2021/06/07 06:07:24;;;;;;;11.40;8.63;;;;;;;;;;5072329;28;20037;-67
2021/06/07 06:09:50;;;;;;;12.00;8.25;;;;;;;;;;5070420;28;20037;-67
2021/06/07 06:12:15;;;;;;;11.77;8.23;;;;;;;;;;5054495;28;20437;-67
2021/06/07 06:14:41;;;;;;;11.88;8.18;;;;;;;;;;5038860;28;20036;-67
2021/06/07 06:17:06;;;;;;;10.85;8.05;;;;;;;;;;5071998;28;20432;-67
2021/06/07 06:19:32;;;;;;;12.52;8.40;;;;;;;;;;5072357;28;20036;-67
2021/06/07 06:22:01;;;;;;;11.48;8.43;;;;;;;;;;5072099;28;20416;-67
2021/06/07 06:24:26;;;;;;;12.30;8.60;;;;;;;;;;5071492;28;20152;-67
2021/06/07 06:26:52;;;;;;;10.80;7.90;;;;;;;;;;5071596;28;20067;-67
2021/06/07 06:29:17;;;;;;;12.00;7.85;;;;;;;;;;5051277;28;20081;-67
2021/06/07 06:31:43;;;;;;;10.77;7.70;;;;;;;;;;5071612;28;20469;-67
2021/06/07 06:34:08;;;;;;;10.52;7.47;;;;;;;;;;5071410;28;20041;-67
2021/06/07 06:36:34;;;;;;;10.45;7.30;;;;;;;;;;5069512;28;20033;-67
2021/06/07 06:39:02;;;;;;;10.70;7.70;;;;;;;;;;5071185;28;20041;-67
2021/06/07 06:41:29;;;;;;;11.68;8.00;;;;;;;;;;5071494;28;20040;-67
2021/06/07 06:43:54;;;;;;;11.02;8.05;;;;;;;;;;5040272;28;20195;-67
2021/06/07 06:46:20;;;;;;;12.27;8.13;;;;;;;;;;5070883;28;20179;-67
2021/06/07 06:48:45;;;;;;;11.13;7.95;;;;;;;;;;5071413;28;20048;-67
2021/06/07 06:51:11;;;;;;;11.43;8.15;;;;;;;;;;5070719;28;21880;-67
2021/06/07 06:53:36;;;;;;;10.48;7.93;;;;;;;;;;5071838;28;20036;-67
2021/06/07 06:56:02;;;;;;;11.07;8.02;;;;;;;;;;5070814;28;20473;-67
2021/06/07 06:58:27;;;;;;;10.75;7.95;;;;;;;;;;5065737;28;20048;-67
2021/06/07 07:00:53;;;;;;;12.68;8.18;;;;;;;;;;5054025;28;20034;-67
2021/06/07 07:03:19;;;;;;;11.52;8.55;;;;;;;;;;5070801;28;20040;-68
2021/06/07 07:05:45;;;;;;;10.82;7.75;;;;;;;;;;5053070;28;20502;-68
2021/06/07 07:08:11;;;;;;;10.73;8.07;;;;;;;;;;5062137;28;20045;-67
2021/06/07 07:10:37;;;;;;;11.25;7.95;;;;;;;;;;5052560;28;20028;-68
2021/06/07 07:13:03;;;;;;;10.48;8.20;;;;;;;;;;5069712;28;20044;-67
2021/06/07 07:15:29;;;;;;;11.18;7.97;;;;;;;;;;5073472;28;20102;-67
2021/06/07 07:17:54;;;;;;;11.30;8.07;;;;;;;;;;5055830;28;20033;-67
2021/06/07 07:20:20;;;;;;;9.93;7.70;;;;;;;;;;5075832;28;20048;-67
2021/06/07 07:22:45;;;;;;;9.80;7.30;;;;;;;;;;5042173;28;20040;-67
2021/06/07 07:25:11;;;;;;;10.18;7.68;;;;;;;;;;5074952;28;20036;-67
2021/06/07 07:27:37;;;;;;;11.77;7.85;;;;;;;;;;5054545;28;20036;-67
2021/06/07 07:30:08;;;;;;;11.02;7.95;;;;;;;;;;5060177;28;20420;-67
2021/06/07 07:32:33;;;;;;;10.82;7.93;;;;;;;;;;5058182;28;20063;-67
2021/06/07 07:34:59;;;;;;;10.90;7.85;;;;;;;;;;5054872;28;20053;-67
2021/06/07 07:37:24;;;;;;;10.95;7.40;;;;;;;;;;5073980;28;20032;-67
2021/06/07 07:39:50;;;;;;;11.88;7.88;;;;;;;;;;5073361;28;20086;-67
2021/06/07 07:42:15;;;;;;;10.60;7.10;;;;;;;;;;5074015;28;20056;-67
2021/06/07 07:44:41;;;;;;;10.10;7.40;;;;;;;;;;5075351;28;20039;-67
2021/06/07 07:47:07;;;;;;;10.95;7.88;;;;;;;;;;5074107;28;20397;-67
2021/06/07 07:49:36;;;;;;;10.15;7.35;;;;;;;;;;5074225;28;20068;-67
2021/06/07 07:52:03;;;;;;;9.63;7.05;;;;;;;;;;5038886;28;20042;-68
2021/06/07 07:54:28;;;;;;;7.70;5.80;;;;;;;;;;5059249;28;20476;-67
2021/06/07 07:56:54;;;;;;;8.77;6.10;;;;;;;;;;5072241;28;20028;-67
2021/06/07 07:59:19;;;;;;;9.57;7.18;;;;;;;;;;5054835;28;20482;-67
2021/06/07 08:01:45;;;;;;;8.73;6.57;;;;;;;;;;5073742;28;20036;-67
2021/06/07 08:04:11;;;;;;;8.68;6.30;;;;;;;;;;5054888;28;20032;-67
2021/06/07 08:06:36;;;;;;;8.50;6.07;;;;;;;;;;5056128;28;20037;-67
2021/06/07 08:09:02;;;;;;;8.60;6.18;;;;;;;;;;5055366;28;20027;-67
2021/06/07 08:11:28;;;;;;;9.35;6.20;;;;;;;;;;5073035;28;20029;-68
2021/06/07 08:13:53;;;;;;;8.23;5.80;;;;;;;;;;5073654;28;20167;-67
2021/06/07 08:16:18;;;;;;;8.65;6.03;;;;;;;;;;5072828;28;20473;-68
2021/06/07 08:18:45;;;;;;;8.85;6.47;;;;;;;;;;5074050;28;20032;-67
2021/06/07 08:21:10;;;;;;;8.25;5.80;;;;;;;;;;5073288;28;20040;-67
2021/06/07 08:23:36;;;;;;;9.15;6.25;;;;;;;;;;5074019;28;20037;-68
2021/06/07 08:26:01;;;;;;;9.40;6.05;;;;;;;;;;5076146;28;20036;-67
2021/06/07 08:28:27;;;;;;;6.93;4.40;;;;;;;;;;5047390;28;20034;-67
2021/06/07 08:30:52;;;;;;;10.18;6.82;;;;;;;;;;5074134;28;20047;-67
2021/06/07 08:33:18;;;;;;;9.82;6.38;;;;;;;;;;5071671;28;20445;-67
2021/06/07 08:35:43;;;;;;;8.02;5.65;;;;;;;;;;5073824;28;20048;-67
2021/06/07 08:38:09;;;;;;;8.15;5.68;;;;;;;;;;5074282;28;20029;-67
2021/06/07 08:40:34;;;;;;;9.00;5.90;;;;;;;;;;5073290;28;20047;-67
2021/06/07 08:43:00;;;;;;;7.68;5.65;;;;;;;;;;5057707;28;20477;-67
2021/06/07 08:45:27;;;;;;;9.48;6.20;;;;;;;;;;5058190;28;20032;-67
2021/06/07 08:47:53;;;;;;;9.43;6.32;;;;;;;;;;5042395;28;20037;-68
2021/06/07 08:50:21;;;;;;;8.23;5.88;;;;;;;;;;5072766;28;20037;-69
2021/06/07 08:52:46;;;;;;;9.65;6.70;;;;;;;;;;5053612;28;20106;-61
2021/06/07 08:55:17;;;;;;;8.85;6.28;;;;;;;;;;5055954;28;20071;-61
2021/06/07 08:57:53;;;;;;;9.43;6.37;;;;;;;;;;5054854;28;20072;-59
2021/06/07 09:00:24;;;;;;;8.90;6.07;;;;;;;;;;5072668;28;20041;-62
2021/06/07 09:02:50;;;;;;;8.53;6.07;;;;;;;;;;5061405;28;20033;-59
2021/06/07 09:05:17;;;;;;;9.40;6.43;;;;;;;;;;5072234;28;20040;-60
2021/06/07 09:08:09;;;;;;;7.78;6.05;;;;;;;;;;5072967;28;20408;-60
2021/06/07 09:10:54;;;;;;;8.93;6.25;;;;;;;;;;5053359;28;20351;-69
2021/06/07 09:13:21;;;;;;;9.10;6.55;;;;;;;;;;5073405;28;20235;-68
2021/06/07 09:15:48;;;;;;;10.35;7.13;;;;;;;;;;5042398;28;20037;-69
2021/06/07 09:18:16;;;;;;;8.25;6.00;;;;;;;;;;5054097;28;20485;-68
2021/06/07 09:20:42;;;;;;;9.10;6.55;;;;;;;;;;5040569;28;20033;-69
2021/06/07 09:23:09;;;;;;;8.15;5.97;;;;;;;;;;5072304;28;20025;-69
2021/06/07 09:25:36;;;;;;;9.55;7.03;;;;;;;;;;5074152;28;20110;-69
2021/06/07 09:28:02;;;;;;;8.68;6.05;;;;;;;;;;5055539;28;20151;-69
2021/06/07 09:30:29;;;;;;;8.35;6.55;;;;;;;;;;5071401;28;20049;-68
2021/06/07 09:33:19;;;;;;;9.07;6.85;;;;;;;;;;5073510;28;20028;-69
2021/06/07 09:35:46;;;;;;;8.68;6.45;;;;;;;;;;5073506;28;20055;-69
2021/06/07 09:38:12;;;;;;;9.48;6.80;;;;;;;;;;5073501;28;20037;-69
2021/06/07 09:40:38;;;;;;;9.82;6.68;;;;;;;;;;5051946;28;20064;-69
2021/06/07 09:43:04;;;;;;;9.30;6.72;;;;;;;;;;5071450;28;20530;-69
2021/06/07 09:45:48;;;;;;;9.40;6.78;;;;;;;;;;5036747;28;20034;-69
2021/06/07 09:48:15;;;;;;;8.95;6.40;;;;;;;;;;5071496;28;20037;-68
2021/06/07 09:50:57;;;;;;;9.40;6.82;;;;;;;;;;5041051;28;20033;-69
2021/06/07 09:53:42;;;;;;;9.65;7.07;;;;;;;;;;5040681;28;20060;-69
2021/06/07 09:56:07;;;;;;;8.95;6.38;;;;;;;;;;5072953;28;20037;-69
2021/06/07 09:58:34;;;;;;;8.60;6.70;;;;;;;;;;5055643;28;20084;-69
2021/06/07 10:00:59;;;;;;;8.38;6.70;;;;;;;;;;5054593;28;20114;-69
2021/06/07 10:03:29;;;;;;;8.63;6.60;;;;;;;;;;5052761;28;20119;-69
2021/06/07 10:06:00;;;;;;;9.38;6.80;;;;;;;;;;5036461;28;20037;-69
2021/06/07 10:08:26;;;;;;;9.05;6.65;;;;;;;;;;5055894;28;20025;-69
2021/06/07 10:10:52;;;;;;;7.80;5.88;;;;;;;;;;5054632;28;20086;-69
2021/06/07 10:13:17;;;;;;;7.32;5.40;;;;;;;;;;5054605;28;20124;-69
2021/06/07 10:15:47;;;;;;;8.43;6.20;;;;;;;;;;5070824;28;20887;-69
2021/06/07 10:18:20;;;;;;;8.68;6.43;;;;;;;;;;5064231;28;20041;-69
2021/06/07 10:20:47;;;;;;;9.07;6.90;;;;;;;;;;5056268;28;20051;-73
2021/06/07 10:23:23;;;;;;;8.05;6.10;;;;;;;;;;5073537;28;20039;-70
2021/06/07 10:25:49;;;;;;;9.55;6.80;;;;;;;;;;5072776;28;20092;-77
2021/06/07 10:28:15;;;;;;;10.15;6.85;;;;;;;;;;5038244;28;20608;-74
2021/06/07 10:30:43;;;;;;;8.50;6.65;;;;;;;;;;5070972;28;20127;-71
2021/06/07 10:33:37;;;;;;;7.85;6.15;;;;;;;;;;5039986;28;20123;-74
2021/06/07 10:36:21;;;;;;;7.47;5.93;;;;;;;;;;5054336;28;20053;-77
2021/06/07 10:38:47;;;;;;;9.25;6.47;;;;;;;;;;5073457;28;20029;-77
2021/06/07 10:41:21;;;;;;;7.95;6.32;;;;;;;;;;5038129;28;20033;-75
2021/06/07 10:43:57;;;;;;;7.93;6.15;;;;;;;;;;5053291;28;20083;-76
2021/06/07 10:46:39;;;;;;;7.03;5.32;;;;;;;;;;5029503;28;20348;-75
2021/06/07 10:49:33;;;;;;;7.05;5.20;;;;;;;;;;5050667;28;20715;-73
2021/06/07 10:52:24;;;;;;;7.00;5.60;;;;;;;;;;5070839;28;20029;-70
2021/06/07 10:55:00;;;;;;;6.55;5.25;;;;;;;;;;5056855;28;20048;-76
2021/06/07 10:57:26;;;;;;;7.13;5.70;;;;;;;;;;5070340;28;20952;-70
2021/06/07 10:59:53;;;;;;;7.05;5.57;;;;;;;;;;5071847;28;20039;-73
2021/06/07 11:02:19;;;;;;;7.63;5.90;;;;;;;;;;5071390;28;20037;-72
2021/06/07 11:04:45;;;;;;;7.32;5.13;;;;;;;;;;5052525;28;20040;-74
2021/06/07 11:07:19;;;;;;;8.20;5.75;;;;;;;;;;5052679;28;20029;-75
2021/06/07 11:10:14;;;;;;;7.63;5.55;;;;;;;;;;5054131;28;20120;-75
2021/06/07 11:12:39;;;;;;;8.10;5.30;;;;;;;;;;5062042;28;20042;-75
2021/06/07 11:15:15;;;;;;;6.50;4.90;;;;;;;;;;5051620;28;20063;-75
2021/06/07 11:17:42;;;;;;;6.95;5.43;;;;;;;;;;5033578;28;20048;-75
2021/06/07 11:20:07;;;;;;;8.48;5.88;;;;;;;;;;5039851;28;20040;-75
2021/06/07 11:23:02;;;;;;;7.10;5.00;;;;;;;;;;5069731;28;20212;-75
2021/06/07 11:25:27;;;;;;;7.20;5.55;;;;;;;;;;5069335;28;20047;-74
2021/06/07 11:27:53;;;;;;;7.82;5.05;;;;;;;;;;5071467;28;20029;-73
2021/06/07 11:30:20;;;;;;;7.22;5.22;;;;;;;;;;5069247;28;24640;-73
2021/06/07 11:32:45;;;;;;;7.47;5.60;;;;;;;;;;5053291;28;20061;-75
2021/06/07 11:35:43;;;;;;;7.18;5.43;;;;;;;;;;5070797;28;20045;-75
2021/06/07 11:38:30;;;;;;;7.85;5.65;;;;;;;;;;5061712;28;20049;-75
2021/06/07 11:40:57;;;;;;;7.13;5.30;;;;;;;;;;5057512;28;20044;-74
2021/06/07 11:43:48;;;;;;;8.40;5.80;;;;;;;;;;5051781;28;20080;-74
2021/06/07 11:46:31;;;;;;;7.95;5.68;;;;;;;;;;5072183;28;20090;-74
2021/06/07 11:49:09;;;;;;;7.30;5.55;;;;;;;;;;5072132;28;20102;-75
2021/06/07 11:51:35;;;;;;;6.93;5.20;;;;;;;;;;5065104;28;20725;-74
2021/06/07 11:54:27;;;;;;;9.13;5.68;;;;;;;;;;5054360;28;20107;-73
2021/06/07 11:57:03;;;;;;;7.45;5.38;;;;;;;;;;5056795;28;20520;-74
2021/06/07 11:59:31;;;;;;;6.78;5.13;;;;;;;;;;5071616;28;20036;-73
2021/06/07 12:01:57;;;;;;;6.97;5.60;;;;;;;;;;5043677;28;20036;-75
2021/06/07 12:04:31;;;;;;;7.40;5.28;;;;;;;;;;5057242;28;20131;-75
2021/06/07 12:07:03;;;;;;;7.30;5.70;;;;;;;;;;5057093;28;20033;-75
2021/06/07 12:09:29;;;;;;;7.65;5.50;;;;;;;;;;5072122;28;20176;-74
2021/06/07 12:11:55;;;;;;;5.97;5.10;;;;;;;;;;5075765;28;20036;-74
2021/06/07 12:14:28;;;;;;;7.25;5.35;;;;;;;;;;5073910;28;20094;-74
2021/06/07 12:16:53;;;;;;;7.47;5.60;;;;;;;;;;5072768;28;20079;-75
2021/06/07 12:19:19;;;;;;;8.15;5.97;;;;;;;;;;5074240;28;20048;-75
2021/06/07 12:21:44;;;;;;;6.95;5.50;;;;;;;;;;5055187;28;20051;-74
2021/06/07 12:24:16;;;;;;;7.03;5.35;;;;;;;;;;5075301;28;20044;-74
2021/06/07 12:29:28;;;;;;;8.77;5.50;;;;;;;;;;5073870;28;20056;-74
2021/06/07 12:32:03;;;;;;;7.35;5.13;;;;;;;;;;5064891;28;21322;-74
2021/06/07 12:34:28;;;;;;;7.05;5.05;;;;;;;;;;5073084;28;20048;-74
2021/06/07 12:36:54;;;;;;;6.18;4.60;;;;;;;;;;5074152;28;20040;-75
2021/06/07 12:39:19;;;;;;;6.78;5.13;;;;;;;;;;5074156;28;20139;-75
2021/06/07 12:41:45;;;;;;;6.85;4.80;;;;;;;;;;5073401;28;20037;-75
2021/06/07 12:44:11;;;;;;;7.25;5.35;;;;;;;;;;5056521;28;20043;-75
2021/06/07 12:46:50;;;;;;;7.55;4.97;;;;;;;;;;5037668;28;20136;-75
2021/06/07 12:49:25;;;;;;;7.07;5.22;;;;;;;;;;5072918;28;20041;-75
2021/06/07 12:51:56;;;;;;;7.28;5.18;;;;;;;;;;5072230;28;20068;-75
2021/06/07 12:54:22;;;;;;;6.05;4.90;;;;;;;;;;5073621;28;20140;-74
2021/06/07 12:56:50;;;;;;;5.95;4.70;;;;;;;;;;5056032;28;20039;-74
2021/06/07 12:59:16;;;;;;;6.28;4.90;;;;;;;;;;5048236;28;20945;-74
2021/06/07 13:01:46;;;;;;;6.07;4.50;;;;;;;;;;5056392;28;21542;-74
2021/06/07 13:04:13;;;;;;;5.93;4.45;;;;;;;;;;5046709;28;20029;-74
2021/06/07 13:06:45;;;;;;;6.97;4.43;;;;;;;;;;5039342;28;20037;-74
2021/06/07 13:09:11;;;;;;;5.55;4.30;;;;;;;;;;5073378;28;20148;-74
2021/06/07 13:11:39;;;;;;;7.53;4.60;;;;;;;;;;5046766;28;20118;-74
2021/06/07 13:14:07;;;;;;;6.25;4.53;;;;;;;;;;5072635;28;20033;-74
2021/06/07 13:16:35;;;;;;;5.57;4.25;;;;;;;;;;5054655;28;20044;-75
2021/06/07 13:19:05;;;;;;;6.55;4.43;;;;;;;;;;5055195;28;20037;-74
2021/06/07 13:21:49;;;;;;;7.13;4.53;;;;;;;;;;5053690;28;20072;-74
2021/06/07 13:24:24;;;;;;;6.05;4.10;;;;;;;;;;5072456;28;20083;-74
2021/06/07 13:27:04;;;;;;;5.63;4.00;;;;;;;;;;5056235;28;20445;-75
2021/06/07 13:29:40;;;;;;;6.53;4.15;;;;;;;;;;5055458;28;20128;-74
2021/06/07 13:32:26;;;;;;;5.70;3.97;;;;;;;;;;5073048;28;20060;-75
2021/06/07 13:34:56;;;;;;;5.15;3.83;;;;;;;;;;5057936;28;20993;-74
2021/06/07 13:37:24;;;;;;;4.82;3.88;;;;;;;;;;5064626;28;20127;-74
2021/06/07 13:40:07;;;;;;;6.82;4.55;;;;;;;;;;5057872;28;20360;-75
2021/06/07 13:42:43;;;;;;;6.45;4.55;;;;;;;;;;5055233;28;20052;-74
2021/06/07 13:45:19;;;;;;;6.35;4.30;;;;;;;;;;5054187;28;20052;-74
2021/06/07 13:47:52;;;;;;;5.75;4.05;;;;;;;;;;5074726;28;20029;-74
2021/06/07 13:50:21;;;;;;;5.20;3.70;;;;;;;;;;5055588;28;20044;-74
2021/06/07 13:52:55;;;;;;;7.72;4.18;;;;;;;;;;5041522;28;20100;-74
2021/06/07 13:55:25;;;;;;;6.55;4.13;;;;;;;;;;5072198;28;20079;-73
2021/06/07 13:57:57;;;;;;;7.28;4.18;;;;;;;;;;5072136;28;20032;-74
2021/06/07 14:00:23;;;;;;;7.82;4.80;;;;;;;;;;5071867;28;20037;-74
2021/06/07 14:02:48;;;;;;;5.53;4.13;;;;;;;;;;5071784;28;20041;-73
2021/06/07 14:05:17;;;;;;;5.90;4.30;;;;;;;;;;5058986;28;20033;-73
2021/06/07 14:07:42;;;;;;;5.00;3.80;;;;;;;;;;5053899;28;20047;-74
2021/06/07 14:10:08;;;;;;;5.30;3.75;;;;;;;;;;5071085;28;20039;-74
2021/06/07 14:12:33;;;;;;;4.90;3.80;;;;;;;;;;5071339;28;20508;-74
2021/06/07 14:14:59;;;;;;;5.30;4.10;;;;;;;;;;5071827;28;20041;-73
2021/06/07 14:17:24;;;;;;;6.30;3.70;;;;;;;;;;5074026;28;20102;-74
2021/06/07 14:19:50;;;;;;;5.35;3.78;;;;;;;;;;5073422;28;20033;-74
2021/06/07 14:24:41;;;;;;;4.13;3.65;;;;;;;;;;5056336;28;20033;-73
2021/06/07 14:27:07;;;;;;;5.15;3.65;;;;;;;;;;5073605;28;20033;-74
2021/06/07 14:29:35;;;;;;;7.10;4.70;;;;;;;;;;5055239;28;20033;-75
2021/06/07 14:32:01;;;;;;;4.75;4.15;;;;;;;;;;5072632;28;20029;-73
2021/06/07 14:34:27;;;;;;;5.55;4.15;;;;;;;;;;5072473;28;20040;-74
2021/06/07 14:36:52;;;;;;;5.78;4.10;;;;;;;;;;5072896;28;20090;-73
2021/06/07 14:39:18;;;;;;;5.50;3.83;;;;;;;;;;5041979;28;20033;-73
2021/06/07 14:41:43;;;;;;;5.28;3.90;;;;;;;;;;5072034;28;20052;-72
2021/06/07 14:44:09;;;;;;;5.63;4.20;;;;;;;;;;5070043;28;22703;-74
2021/06/07 14:46:34;;;;;;;4.70;3.67;;;;;;;;;;5071459;28;20032;-75
2021/06/07 14:49:00;;;;;;;4.65;3.20;;;;;;;;;;5070565;28;20758;-75
2021/06/07 14:51:25;;;;;;;5.05;3.85;;;;;;;;;;5055739;28;20040;-75